Time;durP1;ratioP1;P1;durP2;ratioP2;P2;SDS_P1;SDS_P2;PMS_P1;PMS_P2;Temp;Humidity;BMP_temperature;BMP_pressure;BME280_temperature;BME280_humidity;BME280_pressure;Samples;Min_cycle;Max_cycle;Signal;HPM_P1;HPM_P2
2022/11/14 00:02:35;;;;;;;22.53;12.50;;;;;;;;;;13085166;22;20070;-72
2022/11/14 00:07:35;;;;;;;30.42;13.93;;;;;;;;;;13057306;22;19991;-75
2022/11/14 00:12:35;;;;;;;23.92;11.80;;;;;;;;;;13130767;22;20014;-74
2022/11/14 00:17:36;;;;;;;26.40;12.48;;;;;;;;;;13130532;22;20056;-73
2022/11/14 00:22:36;;;;;;;26.75;13.00;;;;;;;;;;13078553;22;20073;-72
2022/11/14 00:27:37;;;;;;;23.33;12.68;;;;;;;;;;13127370;22;20021;-72
2022/11/14 00:32:37;;;;;;;27.85;13.32;;;;;;;;;;13099759;22;20490;-74
2022/11/14 00:37:38;;;;;;;25.63;13.73;;;;;;;;;;13127028;22;20095;-78
2022/11/14 00:42:38;;;;;;;28.60;11.98;;;;;;;;;;13105373;22;20001;-73
2022/11/14 00:47:39;;;;;;;24.17;12.57;;;;;;;;;;13127348;22;19990;-74
2022/11/14 00:52:40;;;;;;;30.90;14.82;;;;;;;;;;13077679;22;20355;-72
2022/11/14 00:57:40;;;;;;;38.85;18.55;;;;;;;;;;13111282;22;20442;-74
2022/11/14 01:02:41;;;;;;;39.85;18.00;;;;;;;;;;13077774;22;19999;-73
2022/11/14 01:07:41;;;;;;;29.27;14.13;;;;;;;;;;13077113;22;20045;-73
2022/11/14 01:12:41;;;;;;;26.02;14.68;;;;;;;;;;13079524;22;20389;-72
2022/11/14 01:17:41;;;;;;;23.98;13.05;;;;;;;;;;13081488;22;20048;-74
2022/11/14 01:22:42;;;;;;;25.92;12.85;;;;;;;;;;13080800;22;20022;-73
2022/11/14 01:27:42;;;;;;;21.65;12.05;;;;;;;;;;13081987;22;19998;-74
2022/11/14 01:32:42;;;;;;;28.73;13.75;;;;;;;;;;13130726;22;19991;-74
2022/11/14 01:37:42;;;;;;;26.88;12.82;;;;;;;;;;13081047;22;19998;-74
2022/11/14 01:43:02;;;;;;;25.48;13.48;;;;;;;;;;13080697;22;19987;-73
2022/11/14 01:48:03;;;;;;;31.45;13.88;;;;;;;;;;13081070;22;20024;-72
2022/11/14 01:53:03;;;;;;;29.35;14.30;;;;;;;;;;13108244;22;19997;-75
2022/11/14 01:58:06;;;;;;;37.25;15.10;;;;;;;;;;13080251;22;20054;-73
2022/11/14 02:03:06;;;;;;;27.80;14.15;;;;;;;;;;13130244;22;19991;-73
2022/11/14 02:08:09;;;;;;;24.42;13.98;;;;;;;;;;13084739;22;19995;-74
2022/11/14 02:13:09;;;;;;;28.15;13.73;;;;;;;;;;13103810;22;19995;-72
2022/11/14 02:18:11;;;;;;;27.23;13.85;;;;;;;;;;13097172;22;20351;-72
2022/11/14 02:23:11;;;;;;;29.02;13.73;;;;;;;;;;13140212;22;20098;-73
2022/11/14 02:28:13;;;;;;;36.03;14.68;;;;;;;;;;13082478;22;19991;-75
2022/11/14 02:33:14;;;;;;;38.65;17.35;;;;;;;;;;13102041;22;20018;-75
2022/11/14 02:38:14;;;;;;;47.13;20.00;;;;;;;;;;13080027;22;20377;-73
2022/11/14 02:43:14;;;;;;;32.37;14.30;;;;;;;;;;13053703;22;19994;-73
2022/11/14 02:48:15;;;;;;;33.83;18.38;;;;;;;;;;13079978;22;20561;-75
2022/11/14 02:53:15;;;;;;;33.08;15.60;;;;;;;;;;13079592;22;19995;-75
2022/11/14 02:58:15;;;;;;;36.00;15.65;;;;;;;;;;13110711;22;20442;-73
2022/11/14 03:03:16;;;;;;;34.75;15.80;;;;;;;;;;13080035;22;19991;-72
2022/11/14 03:08:16;;;;;;;25.42;11.77;;;;;;;;;;13079682;22;20017;-77
2022/11/14 03:13:16;;;;;;;27.17;13.13;;;;;;;;;;13079198;22;20316;-74
2022/11/14 03:18:16;;;;;;;60.22;24.83;;;;;;;;;;13128128;22;20354;-72
2022/11/14 03:23:16;;;;;;;56.15;22.13;;;;;;;;;;13077957;22;20458;-73
2022/11/14 03:28:17;;;;;;;34.38;15.80;;;;;;;;;;13078723;22;19987;-75
2022/11/14 03:33:17;;;;;;;53.33;22.20;;;;;;;;;;13078378;22;19994;-73
2022/11/14 03:38:18;;;;;;;54.97;23.45;;;;;;;;;;13078759;22;19995;-77
2022/11/14 03:43:19;;;;;;;64.63;27.35;;;;;;;;;;13127760;22;19983;-77
2022/11/14 03:48:19;;;;;;;74.53;28.55;;;;;;;;;;13127996;22;19991;-74
2022/11/14 03:53:20;;;;;;;65.97;28.25;;;;;;;;;;13078813;22;19991;-73
2022/11/14 03:58:20;;;;;;;56.88;28.58;;;;;;;;;;13078358;22;20029;-77
2022/11/14 04:03:22;;;;;;;60.28;28.45;;;;;;;;;;13127130;22;19998;-81
2022/11/14 04:08:22;;;;;;;58.80;27.63;;;;;;;;;;13078071;22;20017;-75
2022/11/14 04:13:22;;;;;;;65.17;28.30;;;;;;;;;;13083576;22;20070;-74
2022/11/14 04:18:23;;;;;;;60.33;24.17;;;;;;;;;;13151704;22;20359;-72
2022/11/14 04:23:23;;;;;;;46.40;20.83;;;;;;;;;;13092677;22;19998;-74
2022/11/14 04:28:24;;;;;;;59.25;27.27;;;;;;;;;;13079837;22;19995;-74
2022/11/14 04:33:24;;;;;;;50.92;24.08;;;;;;;;;;13078266;22;20434;-74
2022/11/14 04:38:24;;;;;;;43.77;19.77;;;;;;;;;;13078007;22;20028;-74
2022/11/14 04:43:24;;;;;;;41.97;20.55;;;;;;;;;;13077790;22;20014;-75
2022/11/14 04:48:25;;;;;;;50.88;22.27;;;;;;;;;;13080859;22;19995;-74
2022/11/14 04:53:25;;;;;;;47.20;22.65;;;;;;;;;;13081262;22;19991;-74
2022/11/14 04:58:25;;;;;;;49.65;23.60;;;;;;;;;;13081310;22;20038;-74
2022/11/14 05:03:25;;;;;;;38.65;20.15;;;;;;;;;;13081705;22;19999;-74
2022/11/14 05:08:26;;;;;;;51.78;21.98;;;;;;;;;;13131106;22;20367;-74
2022/11/14 05:13:26;;;;;;;51.05;23.60;;;;;;;;;;13080968;22;20021;-74
2022/11/14 05:18:26;;;;;;;36.17;19.00;;;;;;;;;;13055978;22;20002;-74
2022/11/14 05:23:26;;;;;;;39.53;20.13;;;;;;;;;;13131067;22;20419;-78
2022/11/14 05:28:27;;;;;;;32.90;17.63;;;;;;;;;;13080395;22;20027;-73
2022/11/14 05:33:27;;;;;;;35.25;16.67;;;;;;;;;;13080938;22;20052;-76
2022/11/14 05:38:28;;;;;;;45.88;17.77;;;;;;;;;;13054664;22;19999;-77
2022/11/14 05:43:28;;;;;;;50.72;19.27;;;;;;;;;;13129016;22;19991;-74
2022/11/14 05:48:28;;;;;;;57.13;21.23;;;;;;;;;;13079646;22;20040;-75
2022/11/14 05:53:30;;;;;;;62.20;22.90;;;;;;;;;;13080216;22;19995;-74
2022/11/14 05:58:30;;;;;;;84.05;21.70;;;;;;;;;;13077728;22;20021;-74
2022/11/14 06:03:32;;;;;;;82.80;19.38;;;;;;;;;;13053505;22;20022;-79
2022/11/14 06:08:33;;;;;;;55.10;19.92;;;;;;;;;;13078880;22;19990;-75
2022/11/14 06:13:33;;;;;;;51.92;17.25;;;;;;;;;;13078600;22;19987;-74
2022/11/14 06:18:34;;;;;;;59.80;16.60;;;;;;;;;;13101752;22;19995;-79
2022/11/14 06:23:34;;;;;;;50.03;19.23;;;;;;;;;;13088504;22;19987;-79
2022/11/14 06:28:35;;;;;;;38.35;14.63;;;;;;;;;;13088094;22;19995;-74
2022/11/14 06:33:36;;;;;;;61.13;17.23;;;;;;;;;;13086502;22;19998;-75
2022/11/14 06:38:37;;;;;;;44.70;17.50;;;;;;;;;;13078323;22;20045;-80
2022/11/14 06:43:38;;;;;;;37.63;16.38;;;;;;;;;;13127769;22;20173;-76
2022/11/14 06:48:39;;;;;;;39.88;15.73;;;;;;;;;;13078029;22;20021;-73
2022/11/14 06:53:40;;;;;;;40.75;15.57;;;;;;;;;;13078600;22;20473;-74
2022/11/14 06:58:42;;;;;;;47.55;16.80;;;;;;;;;;13052421;22;20412;-77
2022/11/14 07:03:44;;;;;;;43.85;16.55;;;;;;;;;;13127848;22;20489;-75
2022/11/14 07:08:44;;;;;;;34.15;15.70;;;;;;;;;;13129388;22;20423;-77
2022/11/14 07:13:44;;;;;;;33.83;14.80;;;;;;;;;;13127816;22;20022;-73
2022/11/14 07:18:45;;;;;;;31.88;15.40;;;;;;;;;;13105619;22;19990;-76
2022/11/14 07:23:45;;;;;;;37.75;15.15;;;;;;;;;;13077892;22;19987;-74
2022/11/14 07:28:46;;;;;;;38.30;15.57;;;;;;;;;;13077944;22;20017;-74
2022/11/14 07:33:46;;;;;;;42.65;17.20;;;;;;;;;;13077466;22;19997;-75
2022/11/14 07:38:47;;;;;;;40.80;16.85;;;;;;;;;;13079689;22;19983;-75
2022/11/14 07:43:48;;;;;;;44.03;18.77;;;;;;;;;;13078477;22;19987;-75
2022/11/14 07:48:48;;;;;;;43.00;17.73;;;;;;;;;;13077211;22;20003;-75
2022/11/14 07:53:50;;;;;;;44.55;19.70;;;;;;;;;;13128054;22;19994;-75
2022/11/14 07:58:50;;;;;;;43.67;20.55;;;;;;;;;;13076663;22;20363;-75
2022/11/14 08:03:52;;;;;;;55.97;21.47;;;;;;;;;;13126856;22;19987;-75
2022/11/14 08:08:52;;;;;;;44.13;20.50;;;;;;;;;;13078630;22;19987;-73
2022/11/14 08:13:52;;;;;;;51.95;21.15;;;;;;;;;;13077716;22;19998;-76
2022/11/14 08:18:53;;;;;;;52.90;22.08;;;;;;;;;;13125973;22;20018;-75
2022/11/14 08:23:53;;;;;;;42.70;21.02;;;;;;;;;;13077951;22;20069;-76
2022/11/14 08:28:53;;;;;;;48.30;19.65;;;;;;;;;;13077644;22;19987;-75
2022/11/14 08:33:54;;;;;;;41.90;19.17;;;;;;;;;;13128479;22;20018;-72
2022/11/14 08:38:54;;;;;;;44.00;19.80;;;;;;;;;;13097310;22;20426;-74
2022/11/14 08:43:54;;;;;;;51.08;20.95;;;;;;;;;;13099151;22;19987;-74
2022/11/14 08:48:55;;;;;;;43.83;20.90;;;;;;;;;;13130243;22;20014;-75
2022/11/14 08:53:55;;;;;;;48.20;18.67;;;;;;;;;;13077640;22;19987;-75
2022/11/14 08:58:55;;;;;;;39.55;17.48;;;;;;;;;;13077569;22;20092;-76
2022/11/14 09:03:56;;;;;;;45.20;20.60;;;;;;;;;;13077685;22;19987;-76
2022/11/14 09:08:56;;;;;;;42.28;20.40;;;;;;;;;;13076405;22;19986;-74
2022/11/14 09:13:57;;;;;;;50.22;22.45;;;;;;;;;;13077124;22;20073;-76
2022/11/14 09:18:57;;;;;;;48.33;21.23;;;;;;;;;;13076720;22;20423;-75
2022/11/14 09:23:58;;;;;;;59.40;20.23;;;;;;;;;;13076858;22;19995;-73
2022/11/14 09:28:58;;;;;;;53.75;22.73;;;;;;;;;;13076816;22;20010;-74
2022/11/14 09:33:59;;;;;;;53.90;20.20;;;;;;;;;;13079069;22;20066;-76
2022/11/14 09:38:59;;;;;;;43.15;21.63;;;;;;;;;;13080827;22;19995;-75
2022/11/14 09:44:07;;;;;;;52.58;21.25;;;;;;;;;;13129752;22;20029;-75
2022/11/14 09:49:10;;;;;;;45.90;21.47;;;;;;;;;;13129775;22;20743;-74
2022/11/14 09:54:19;;;;;;;50.97;22.45;;;;;;;;;;13080279;22;20241;-74
2022/11/14 09:59:19;;;;;;;50.83;21.35;;;;;;;;;;13079777;22;20371;-73
2022/11/14 10:04:28;;;;;;;47.65;23.52;;;;;;;;;;13080199;22;20075;-75
2022/11/14 10:09:28;;;;;;;49.45;20.15;;;;;;;;;;13053741;22;20014;-75
2022/11/14 10:14:47;;;;;;;45.03;19.00;;;;;;;;;;13079671;22;19995;-76
2022/11/14 10:20:06;;;;;;;36.65;17.25;;;;;;;;;;13079858;22;19987;-76
2022/11/14 10:25:22;;;;;;;33.58;17.60;;;;;;;;;;13079284;22;19995;-73
2022/11/14 10:30:24;;;;;;;31.80;16.92;;;;;;;;;;13078711;22;19990;-75
2022/11/14 10:35:35;;;;;;;30.65;16.25;;;;;;;;;;13078982;22;20205;-74
2022/11/14 10:40:40;;;;;;;33.17;16.70;;;;;;;;;;13079115;22;19990;-75
2022/11/14 10:45:52;;;;;;;33.78;18.35;;;;;;;;;;13129000;22;19999;-74
2022/11/14 10:51:11;;;;;;;35.05;18.75;;;;;;;;;;13077543;22;20450;-74
2022/11/14 10:56:13;;;;;;;32.55;17.23;;;;;;;;;;13072019;22;20455;-74
2022/11/14 11:01:31;;;;;;;32.45;16.75;;;;;;;;;;13122949;22;19997;-76
2022/11/14 11:06:32;;;;;;;33.47;18.25;;;;;;;;;;13122661;22;20003;-74
2022/11/14 11:11:32;;;;;;;39.88;17.77;;;;;;;;;;13073678;22;20335;-76
2022/11/14 11:16:33;;;;;;;34.07;17.77;;;;;;;;;;13074040;22;20022;-76
2022/11/14 11:21:45;;;;;;;31.52;18.05;;;;;;;;;;13124101;22;19986;-76
2022/11/14 11:26:45;;;;;;;40.47;17.73;;;;;;;;;;13073604;22;20074;-75
2022/11/14 11:31:50;;;;;;;33.70;17.75;;;;;;;;;;13073450;22;20022;-75
2022/11/14 11:36:59;;;;;;;31.85;18.35;;;;;;;;;;13074969;22;19991;-75
2022/11/14 11:42:02;;;;;;;37.30;20.48;;;;;;;;;;13076228;22;20014;-74
2022/11/14 11:47:07;;;;;;;39.33;20.73;;;;;;;;;;13097692;22;20006;-74
2022/11/14 11:52:12;;;;;;;50.83;24.88;;;;;;;;;;13076109;22;20019;-76
2022/11/14 11:57:15;;;;;;;56.72;25.05;;;;;;;;;;13074923;22;20064;-75
2022/11/14 12:02:23;;;;;;;54.20;27.10;;;;;;;;;;13125169;22;20465;-76
2022/11/14 12:07:55;;;;;;;60.33;27.55;;;;;;;;;;13075850;22;19994;-74
2022/11/14 12:13:11;;;;;;;62.15;27.98;;;;;;;;;;13009260;22;20070;-75
2022/11/14 12:18:30;;;;;;;56.17;26.58;;;;;;;;;;13076122;22;19998;-75
2022/11/14 12:23:31;;;;;;;53.35;26.88;;;;;;;;;;13124880;22;20338;-75
2022/11/14 12:28:42;;;;;;;57.58;29.27;;;;;;;;;;13077048;22;20018;-75
2022/11/14 12:33:44;;;;;;;61.15;30.27;;;;;;;;;;13076385;22;20319;-75
2022/11/14 12:38:49;;;;;;;67.30;29.00;;;;;;;;;;13097620;22;19995;-76
2022/11/14 12:43:50;;;;;;;96.10;46.28;;;;;;;;;;13078942;22;20350;-77
2022/11/14 12:48:50;;;;;;;68.77;29.93;;;;;;;;;;13076162;22;20001;-76
2022/11/14 12:53:52;;;;;;;64.10;30.13;;;;;;;;;;13077000;22;20438;-76
2022/11/14 12:59:05;;;;;;;67.85;32.05;;;;;;;;;;13075830;22;20065;-75
2022/11/14 13:04:05;;;;;;;73.78;31.02;;;;;;;;;;13124888;22;20017;-72
2022/11/14 13:09:11;;;;;;;78.68;30.52;;;;;;;;;;13079325;22;20021;-75
2022/11/14 13:24:59;;;;;;;68.28;30.73;;;;;;;;;;13129282;22;20450;-77
2022/11/14 13:30:01;;;;;;;75.18;30.10;;;;;;;;;;13128952;22;19990;-73
2022/11/14 13:35:10;;;;;;;73.13;31.40;;;;;;;;;;13129975;22;20005;-75
2022/11/14 13:40:20;;;;;;;68.57;32.05;;;;;;;;;;13078941;22;19987;-74
2022/11/14 13:45:39;;;;;;;70.55;30.80;;;;;;;;;;13079635;22;19990;-77
2022/11/14 13:50:39;;;;;;;66.53;31.45;;;;;;;;;;13078342;22;19990;-74
2022/11/14 13:55:58;;;;;;;71.03;31.02;;;;;;;;;;13078966;22;20045;-75
2022/11/14 14:01:07;;;;;;;79.43;33.67;;;;;;;;;;13079761;22;20485;-75
2022/11/14 14:06:26;;;;;;;73.55;29.15;;;;;;;;;;13078788;22;20495;-73
2022/11/14 14:11:37;;;;;;;66.70;29.00;;;;;;;;;;13079015;22;20434;-74
2022/11/14 14:16:43;;;;;;;80.20;31.05;;;;;;;;;;13078512;22;20485;-77
2022/11/14 14:21:46;;;;;;;68.03;29.77;;;;;;;;;;13128315;22;20039;-76
2022/11/14 14:27:07;;;;;;;73.97;31.75;;;;;;;;;;13137579;22;19998;-75
2022/11/14 14:32:15;;;;;;;72.40;30.35;;;;;;;;;;13064872;22;20319;-76
2022/11/14 14:37:15;;;;;;;73.97;32.28;;;;;;;;;;13084890;22;20026;-76
2022/11/14 14:42:16;;;;;;;75.53;31.67;;;;;;;;;;13082890;22;19991;-74
2022/11/14 14:47:32;;;;;;;80.30;32.17;;;;;;;;;;13078733;22;19998;-75
2022/11/14 14:52:36;;;;;;;78.05;32.50;;;;;;;;;;13078135;22;20078;-74
2022/11/14 14:57:36;;;;;;;76.13;31.15;;;;;;;;;;13077366;22;20064;-77
2022/11/14 15:02:36;;;;;;;78.22;34.10;;;;;;;;;;13077950;22;20060;-76
2022/11/14 15:07:38;;;;;;;79.85;33.80;;;;;;;;;;13105973;22;20014;-76
2022/11/14 15:12:39;;;;;;;79.55;35.00;;;;;;;;;;13099464;22;19998;-75
2022/11/14 15:17:39;;;;;;;78.97;34.42;;;;;;;;;;13077983;22;20180;-75
2022/11/14 15:22:40;;;;;;;71.22;32.65;;;;;;;;;;13077133;22;19987;-77
2022/11/14 15:27:44;;;;;;;75.97;34.15;;;;;;;;;;13077154;22;20433;-76
2022/11/14 15:32:49;;;;;;;72.97;32.40;;;;;;;;;;13077214;22;19994;-76
2022/11/14 15:38:00;;;;;;;95.47;34.85;;;;;;;;;;13051339;22;20063;-74
2022/11/14 15:43:20;;;;;;;80.07;35.72;;;;;;;;;;13076862;22;20075;-75
2022/11/14 15:48:20;;;;;;;84.90;34.45;;;;;;;;;;13077010;22;20090;-76
2022/11/14 15:53:22;;;;;;;81.83;34.23;;;;;;;;;;13051285;22;19994;-76
2022/11/14 15:58:22;;;;;;;90.78;38.80;;;;;;;;;;13076248;22;20334;-75
2022/11/14 16:03:23;;;;;;;89.72;36.33;;;;;;;;;;13123130;22;19991;-75
2022/11/14 16:08:24;;;;;;;100.63;37.23;;;;;;;;;;13075441;22;20013;-76
2022/11/14 16:13:24;;;;;;;91.40;36.65;;;;;;;;;;13075451;22;20002;-76
2022/11/14 16:18:24;;;;;;;92.80;37.88;;;;;;;;;;13075407;22;20005;-77
2022/11/14 16:23:25;;;;;;;97.30;35.55;;;;;;;;;;13076134;22;20018;-74
2022/11/14 16:28:25;;;;;;;109.07;38.85;;;;;;;;;;13115773;22;20467;-77
2022/11/14 16:33:27;;;;;;;110.80;41.30;;;;;;;;;;13074818;22;19995;-75
2022/11/14 16:38:29;;;;;;;102.30;39.00;;;;;;;;;;13123749;22;20032;-75
2022/11/14 16:43:30;;;;;;;105.38;39.40;;;;;;;;;;13106225;22;19994;-76
2022/11/14 16:48:31;;;;;;;102.03;42.05;;;;;;;;;;13117530;22;20041;-76
2022/11/14 16:53:31;;;;;;;92.20;37.92;;;;;;;;;;13079901;22;20430;-75
2022/11/14 16:58:31;;;;;;;91.50;41.55;;;;;;;;;;13088191;22;20033;-75
2022/11/14 17:03:32;;;;;;;98.93;39.92;;;;;;;;;;13145875;22;20334;-78
2022/11/14 17:08:32;;;;;;;96.80;40.47;;;;;;;;;;13092555;22;20419;-77
2022/11/14 17:13:32;;;;;;;104.72;42.28;;;;;;;;;;13082535;22;20427;-73
2022/11/14 17:18:32;;;;;;;114.72;45.05;;;;;;;;;;13078374;22;20002;-75
2022/11/14 17:23:33;;;;;;;117.72;43.67;;;;;;;;;;13079567;22;20075;-76
2022/11/14 17:28:34;;;;;;;110.50;40.95;;;;;;;;;;13079159;22;20021;-76
2022/11/14 17:33:34;;;;;;;107.32;40.60;;;;;;;;;;13078332;22;20002;-77
2022/11/14 17:38:35;;;;;;;99.85;41.25;;;;;;;;;;13127686;22;19995;-75
2022/11/14 17:43:36;;;;;;;98.60;40.53;;;;;;;;;;13109274;22;20343;-76
2022/11/14 17:48:36;;;;;;;89.13;39.40;;;;;;;;;;13127757;22;20355;-77
2022/11/14 17:53:37;;;;;;;104.32;39.70;;;;;;;;;;13078652;22;19987;-74
2022/11/14 17:58:37;;;;;;;92.53;38.78;;;;;;;;;;13109558;22;20086;-76
2022/11/14 18:03:37;;;;;;;102.45;40.38;;;;;;;;;;13078566;22;20070;-77
2022/11/14 18:08:39;;;;;;;84.88;38.17;;;;;;;;;;13078002;22;20087;-78
2022/11/14 18:13:40;;;;;;;90.43;37.67;;;;;;;;;;13128103;22;19995;-75
2022/11/14 18:18:40;;;;;;;79.93;37.58;;;;;;;;;;13077797;22;20037;-75
2022/11/14 18:23:40;;;;;;;77.30;33.57;;;;;;;;;;13127234;22;20421;-74
2022/11/14 18:28:41;;;;;;;92.30;35.20;;;;;;;;;;13078388;22;20014;-75
2022/11/14 18:33:42;;;;;;;92.32;36.33;;;;;;;;;;13077788;22;20055;-76
2022/11/14 18:38:45;;;;;;;85.07;35.30;;;;;;;;;;13076780;22;20001;-75
2022/11/14 18:43:45;;;;;;;88.32;34.78;;;;;;;;;;13077845;22;20374;-76
2022/11/14 18:48:47;;;;;;;81.40;34.28;;;;;;;;;;13077149;22;19997;-75
2022/11/14 18:53:47;;;;;;;83.28;35.95;;;;;;;;;;13075729;22;19991;-76
2022/11/14 18:58:50;;;;;;;81.47;36.53;;;;;;;;;;13039032;22;20471;-75
2022/11/14 19:03:51;;;;;;;83.10;36.72;;;;;;;;;;13038295;22;20026;-76
2022/11/14 19:08:56;;;;;;;92.35;36.22;;;;;;;;;;13037799;22;19999;-76
2022/11/14 19:13:59;;;;;;;86.47;37.38;;;;;;;;;;13039915;22;20002;-74
2022/11/14 19:18:59;;;;;;;83.97;34.42;;;;;;;;;;13047659;22;19999;-77
2022/11/14 19:23:59;;;;;;;93.90;35.45;;;;;;;;;;13044478;22;20078;-75
2022/11/14 19:29:04;;;;;;;87.45;38.38;;;;;;;;;;13041583;22;20002;-74
2022/11/14 19:34:04;;;;;;;80.80;37.88;;;;;;;;;;13038071;22;19992;-74
2022/11/14 19:39:04;;;;;;;96.15;37.92;;;;;;;;;;13038936;22;20022;-76
2022/11/14 19:44:05;;;;;;;95.63;38.33;;;;;;;;;;13061267;22;19983;-77
2022/11/14 19:49:06;;;;;;;91.83;36.90;;;;;;;;;;13037244;22;20014;-77
2022/11/14 19:54:08;;;;;;;84.70;35.42;;;;;;;;;;13037304;22;20257;-75
2022/11/14 19:59:09;;;;;;;84.30;37.10;;;;;;;;;;13035077;22;20084;-75
2022/11/14 20:04:10;;;;;;;93.15;39.80;;;;;;;;;;13008418;22;20072;-75
2022/11/14 20:09:11;;;;;;;81.85;37.05;;;;;;;;;;13034916;22;19991;-76
2022/11/14 20:14:11;;;;;;;93.45;38.45;;;;;;;;;;13034676;22;19995;-80
2022/11/14 20:19:12;;;;;;;83.80;33.92;;;;;;;;;;13033885;22;19994;-76
2022/11/14 20:24:16;;;;;;;74.10;32.13;;;;;;;;;;13035463;22;19988;-79
2022/11/14 20:29:16;;;;;;;73.05;32.42;;;;;;;;;;13038061;22;19992;-75
2022/11/14 20:34:16;;;;;;;83.82;33.97;;;;;;;;;;13036765;22;19987;-75
2022/11/14 20:39:17;;;;;;;81.22;38.00;;;;;;;;;;13037320;22;20030;-76
2022/11/14 20:44:17;;;;;;;75.23;33.87;;;;;;;;;;13058823;22;19995;-76
2022/11/14 20:49:18;;;;;;;83.63;36.78;;;;;;;;;;13059884;22;20033;-77
2022/11/14 20:54:18;;;;;;;75.80;35.95;;;;;;;;;;13058623;22;19983;-77
2022/11/14 20:59:18;;;;;;;93.03;36.77;;;;;;;;;;13038014;22;20105;-75
2022/11/14 21:04:19;;;;;;;87.60;35.53;;;;;;;;;;13010880;22;19995;-75
2022/11/14 21:09:19;;;;;;;87.85;36.80;;;;;;;;;;13060121;22;20000;-76
2022/11/14 21:14:19;;;;;;;84.32;37.58;;;;;;;;;;13059808;22;20040;-76
2022/11/14 21:19:19;;;;;;;90.38;39.90;;;;;;;;;;13036906;22;19996;-76
2022/11/14 21:24:20;;;;;;;88.15;39.63;;;;;;;;;;13059382;22;19991;-76
2022/11/14 21:29:20;;;;;;;85.68;40.33;;;;;;;;;;13041992;22;19991;-76
2022/11/14 21:34:20;;;;;;;101.88;46.58;;;;;;;;;;13069465;22;19998;-76
2022/11/14 21:39:20;;;;;;;109.30;49.97;;;;;;;;;;13048165;22;20397;-74
2022/11/14 21:44:21;;;;;;;122.25;52.42;;;;;;;;;;13051197;22;20002;-74
2022/11/14 21:49:22;;;;;;;114.10;49.28;;;;;;;;;;13055907;22;20459;-74
2022/11/14 21:54:22;;;;;;;120.30;51.67;;;;;;;;;;13036732;22;20037;-75
2022/11/14 21:59:26;;;;;;;121.03;53.63;;;;;;;;;;13115389;22;20025;-75
2022/11/14 22:04:26;;;;;;;120.90;55.33;;;;;;;;;;13074821;22;19987;-79
2022/11/14 22:09:27;;;;;;;125.28;53.05;;;;;;;;;;13124680;22;20338;-80
2022/11/14 22:14:28;;;;;;;131.43;54.80;;;;;;;;;;13075131;22;19991;-75
2022/11/14 22:19:28;;;;;;;123.55;55.65;;;;;;;;;;13074135;22;19991;-74
2022/11/14 22:24:28;;;;;;;128.10;57.83;;;;;;;;;;13123184;22;20055;-75
2022/11/14 22:29:29;;;;;;;119.28;53.42;;;;;;;;;;13071674;22;19994;-77
2022/11/14 22:34:29;;;;;;;122.73;51.70;;;;;;;;;;13070609;22;20470;-73
2022/11/14 22:39:29;;;;;;;114.07;50.78;;;;;;;;;;13074252;22;20300;-77
2022/11/14 22:44:29;;;;;;;117.78;49.58;;;;;;;;;;13076226;22;20021;-74
2022/11/14 22:49:30;;;;;;;114.55;50.10;;;;;;;;;;13125108;22;20342;-78
2022/11/14 22:54:30;;;;;;;116.38;50.83;;;;;;;;;;13075419;22;20477;-79
2022/11/14 22:59:30;;;;;;;108.25;51.20;;;;;;;;;;13074782;22;20504;-79
2022/11/14 23:04:30;;;;;;;116.70;48.75;;;;;;;;;;13076295;22;20018;-74
2022/11/14 23:09:31;;;;;;;119.13;49.78;;;;;;;;;;13127058;22;20002;-76
2022/11/14 23:14:31;;;;;;;120.47;49.67;;;;;;;;;;13124622;22;20018;-75
2022/11/14 23:19:31;;;;;;;109.45;51.00;;;;;;;;;;13075052;22;19990;-74
2022/11/14 23:24:31;;;;;;;112.18;49.10;;;;;;;;;;13077250;22;19983;-75
2022/11/14 23:29:33;;;;;;;119.15;50.60;;;;;;;;;;13126626;22;19994;-75
2022/11/14 23:34:35;;;;;;;108.20;46.90;;;;;;;;;;13075092;22;20033;-74
2022/11/14 23:39:35;;;;;;;108.35;48.63;;;;;;;;;;13062927;22;20074;-73
2022/11/14 23:44:35;;;;;;;104.43;48.25;;;;;;;;;;13101586;22;19995;-72
2022/11/14 23:49:36;;;;;;;68.95;30.13;;;;;;;;;;13101686;22;20013;-74
2022/11/14 23:54:36;;;;;;;85.90;41.72;;;;;;;;;;13086341;22;20001;-74
2022/11/14 23:59:37;;;;;;;93.38;43.35;;;;;;;;;;13077571;22;20025;-75
